Time;durP1;ratioP1;P1;durP2;ratioP2;P2;SDS_P1;SDS_P2;PMS_P1;PMS_P2;Temp;Humidity;BMP_temperature;BMP_pressure;BME280_temperature;BME280_humidity;BME280_pressure;Samples;Min_cycle;Max_cycle;Signal;HPM_P1;HPM_P2
2021/06/03 00:02:11;;;;;;;8.63;5.40;;;;;;;25.03;37.45;101508.59;5075761;28;20463;-54
2021/06/03 00:04:39;;;;;;;12.87;7.60;;;;;;;24.91;38.18;101506.94;5074542;28;20483;-56
2021/06/03 00:07:08;;;;;;;8.87;6.07;;;;;;;24.94;37.80;101512.19;5075561;28;20456;-56
2021/06/03 00:09:35;;;;;;;13.20;6.73;;;;;;;24.24;39.07;101511.59;5074222;28;20490;-55
2021/06/03 00:12:02;;;;;;;13.33;6.50;;;;;;;24.33;39.04;101511.59;5075676;28;20460;-49
2021/06/03 00:14:30;;;;;;;10.33;6.67;;;;;;;24.27;39.06;101516.88;5074405;28;20457;-52
2021/06/03 00:16:57;;;;;;;11.93;6.07;;;;;;;24.12;39.38;101512.53;5075330;28;20464;-53
2021/06/03 00:19:25;;;;;;;11.53;6.27;;;;;;;24.12;39.43;101508.16;5074030;28;20912;-55
2021/06/03 00:21:54;;;;;;;13.63;8.03;;;;;;;24.19;39.50;101508.13;5075202;28;20897;-53
2021/06/03 00:24:21;;;;;;;11.83;6.60;;;;;;;24.30;39.28;101506.31;5074404;28;20491;-55
2021/06/03 00:26:48;;;;;;;10.43;5.70;;;;;;;24.35;39.20;101503.69;5075219;28;20514;-50
2021/06/03 00:29:16;;;;;;;11.60;5.80;;;;;;;24.36;38.90;101495.75;5073773;28;20479;-51
2021/06/03 00:31:43;;;;;;;9.23;5.70;;;;;;;24.09;39.66;101507.28;5075009;28;20483;-49
2021/06/03 00:34:11;;;;;;;9.70;5.33;;;;;;;24.19;39.02;101503.72;5074301;28;20455;-52
2021/06/03 00:36:39;;;;;;;15.80;6.00;;;;;;;24.30;39.03;101506.31;5070011;28;20808;-53
2021/06/03 00:39:07;;;;;;;9.90;5.47;;;;;;;23.66;40.16;101502.94;5075266;28;20488;-53
2021/06/03 00:41:34;;;;;;;9.03;5.90;;;;;;;23.83;39.84;101503.78;5073767;28;20475;-54
2021/06/03 00:44:02;;;;;;;8.97;5.70;;;;;;;24.11;39.14;101509.00;5074804;28;20761;-56
2021/06/03 00:46:30;;;;;;;9.00;5.90;;;;;;;24.05;39.37;101506.34;5073463;28;20489;-54
2021/06/03 00:48:57;;;;;;;10.83;5.57;;;;;;;23.79;40.11;101504.66;5075319;28;20471;-52
2021/06/03 00:51:25;;;;;;;11.20;5.90;;;;;;;23.90;39.81;101501.16;5074271;28;20485;-55
2021/06/03 00:53:53;;;;;;;9.57;5.80;;;;;;;23.86;39.95;101502.91;5075042;28;20455;-51
2021/06/03 00:56:20;;;;;;;9.43;5.40;;;;;;;23.95;39.50;101507.28;5073429;28;20487;-52
2021/06/03 00:58:47;;;;;;;9.33;5.70;;;;;;;23.95;39.62;101505.50;5074926;28;20846;-51
2021/06/03 01:01:15;;;;;;;8.90;5.43;;;;;;;24.17;39.37;101507.25;5073789;28;20484;-51
2021/06/03 01:03:42;;;;;;;8.97;5.53;;;;;;;23.83;39.52;101505.53;5075041;28;20469;-56
2021/06/03 01:06:11;;;;;;;8.93;6.13;;;;;;;23.87;39.90;101502.03;5073613;28;20485;-51
2021/06/03 01:08:41;;;;;;;11.70;5.80;;;;;;;24.05;39.26;101506.34;5075002;28;20472;-53
2021/06/03 01:11:15;;;;;;;9.73;6.30;;;;;;;23.99;39.43;101506.38;5073794;28;20486;-52
2021/06/03 01:13:48;;;;;;;8.50;5.43;;;;;;;23.77;39.52;101506.44;5075130;28;20454;-53
2021/06/03 01:16:16;;;;;;;9.70;5.83;;;;;;;24.06;39.34;101497.59;5073399;28;20486;-54
2021/06/03 01:18:43;;;;;;;9.23;5.93;;;;;;;23.86;39.30;101503.81;5074948;28;20494;-47
2021/06/03 01:21:29;;;;;;;8.90;5.67;;;;;;;23.85;39.55;101503.78;5073617;28;20932;-50
2021/06/03 01:24:09;;;;;;;10.40;5.70;;;;;;;23.56;40.16;101489.78;5074894;28;20461;-51
2021/06/03 01:26:36;;;;;;;9.30;5.30;;;;;;;23.83;39.67;101490.63;5074171;28;20464;-57
2021/06/03 01:29:03;;;;;;;8.80;5.63;;;;;;;23.66;40.02;101498.56;5071049;28;20517;-49
2021/06/03 01:31:31;;;;;;;9.43;5.30;;;;;;;24.16;38.88;101492.31;5073301;28;20488;-53
2021/06/03 01:33:59;;;;;;;9.13;6.00;;;;;;;23.72;39.76;101489.75;5074924;28;20465;-52
2021/06/03 01:36:26;;;;;;;10.10;6.30;;;;;;;23.77;39.74;101495.91;5073112;28;20489;-51
2021/06/03 01:38:53;;;;;;;9.60;6.17;;;;;;;23.83;39.85;101495.00;5074593;28;20488;-54
2021/06/03 01:41:22;;;;;;;16.23;7.30;;;;;;;24.00;39.27;101494.97;5075089;28;20485;-55
2021/06/03 01:43:49;;;;;;;8.57;5.33;;;;;;;23.79;39.63;101499.41;5078364;28;20764;-50
2021/06/03 01:46:16;;;;;;;12.27;5.30;;;;;;;23.73;39.75;101497.66;5076837;28;20483;-51
2021/06/03 01:48:43;;;;;;;11.20;6.10;;;;;;;23.87;39.42;101502.91;5078205;28;20482;-52
2021/06/03 01:51:12;;;;;;;9.80;6.03;;;;;;;23.77;39.63;101500.28;5076887;28;20485;-52
2021/06/03 01:53:40;;;;;;;11.60;5.77;;;;;;;23.68;39.79;101501.19;5078196;28;20458;-54
2021/06/03 01:56:10;;;;;;;16.43;6.13;;;;;;;23.79;39.88;101503.81;5076337;28;20619;-53
2021/06/03 01:58:39;;;;;;;8.60;5.90;;;;;;;23.73;39.75;101499.41;5077452;28;20954;-52
2021/06/03 02:01:07;;;;;;;7.90;5.13;;;;;;;23.67;40.05;101499.41;5076768;28;20572;-52
2021/06/03 02:03:35;;;;;;;9.27;5.80;;;;;;;23.53;40.17;101502.94;5077677;28;20547;-51
2021/06/03 02:06:03;;;;;;;8.20;5.83;;;;;;;23.39;40.56;101504.72;5075036;28;20782;-54
2021/06/03 02:08:30;;;;;;;8.63;5.73;;;;;;;23.53;40.30;101502.94;5077899;28;20482;-50
2021/06/03 02:10:58;;;;;;;9.73;6.13;;;;;;;23.58;40.23;101511.72;5076641;28;20482;-49
2021/06/03 02:13:26;;;;;;;7.20;4.93;;;;;;;23.70;40.08;101504.69;5078076;28;20464;-50
2021/06/03 02:15:58;;;;;;;9.87;5.97;;;;;;;23.48;40.40;101502.06;5076099;28;20486;-52
2021/06/03 02:18:30;;;;;;;9.50;6.53;;;;;;;23.44;40.26;101500.31;5077800;28;20488;-51
2021/06/03 02:20:58;;;;;;;9.43;5.33;;;;;;;23.23;40.84;101502.06;5076440;28;20517;-49
2021/06/03 02:23:26;;;;;;;9.83;6.03;;;;;;;23.52;40.28;101498.56;5077486;28;20469;-50
2021/06/03 02:25:57;;;;;;;12.20;7.30;;;;;;;23.43;40.69;101498.56;5075593;28;20489;-51
2021/06/03 02:28:24;;;;;;;8.80;6.10;;;;;;;23.49;40.31;101500.31;5077291;28;20480;-54
2021/06/03 02:30:52;;;;;;;13.03;5.90;;;;;;;23.30;40.98;101501.22;5076011;28;20482;-52
2021/06/03 02:33:20;;;;;;;17.33;11.17;;;;;;;23.49;40.59;101498.56;5077560;28;20458;-53
2021/06/03 02:35:47;;;;;;;28.93;14.97;;;;;;;23.63;40.46;101492.41;5075602;28;20540;-53
2021/06/03 02:38:17;;;;;;;11.23;7.20;;;;;;;23.72;40.19;101495.03;5077143;28;21061;-52
2021/06/03 02:40:44;;;;;;;22.60;11.27;;;;;;;23.46;40.71;101501.19;5074957;28;20487;-54
2021/06/03 02:43:11;;;;;;;31.60;15.37;;;;;;;23.18;41.52;101509.06;5077403;28;20455;-52
2021/06/03 02:45:38;;;;;;;24.77;14.80;;;;;;;23.27;41.37;101503.78;5075611;28;20478;-52
2021/06/03 02:48:06;;;;;;;12.27;6.00;;;;;;;23.31;40.90;101497.69;5076925;28;20482;-54
2021/06/03 02:50:34;;;;;;;30.20;18.27;;;;;;;23.25;41.18;101502.91;5075644;28;20492;-52
2021/06/03 02:53:02;;;;;;;13.50;8.37;;;;;;;23.32;40.98;101501.19;5077032;28;20465;-54
2021/06/03 02:55:29;;;;;;;14.33;8.17;;;;;;;23.45;40.57;101509.97;5072834;28;20780;-50
2021/06/03 02:57:56;;;;;;;14.73;9.93;;;;;;;23.59;40.29;101507.34;5076594;28;20456;-56
2021/06/03 03:00:26;;;;;;;14.70;8.80;;;;;;;23.49;40.34;101503.84;5075394;28;20564;-53
2021/06/03 03:02:57;;;;;;;11.23;7.00;;;;;;;23.18;41.11;101509.91;5076895;28;20458;-55
2021/06/03 03:05:24;;;;;;;15.57;10.20;;;;;;;23.03;41.41;101512.53;5075052;28;20481;-54
2021/06/03 03:07:53;;;;;;;10.57;7.40;;;;;;;23.21;41.25;101511.69;5076672;28;21015;-55
2021/06/03 03:10:23;;;;;;;10.60;7.00;;;;;;;23.24;40.97;101511.69;5075412;28;20483;-52
2021/06/03 03:12:50;;;;;;;11.73;7.17;;;;;;;23.26;41.22;101504.66;5076683;28;20461;-53
2021/06/03 03:15:18;;;;;;;14.80;8.70;;;;;;;23.34;41.42;101509.97;5075556;28;20773;-52
2021/06/03 03:17:46;;;;;;;10.57;6.33;;;;;;;23.18;41.28;101511.69;5075970;28;20457;-50
2021/06/03 03:20:14;;;;;;;11.40;6.27;;;;;;;23.16;41.36;101518.69;5075044;28;20490;-54
2021/06/03 03:22:52;;;;;;;9.63;6.67;;;;;;;23.08;41.80;101520.44;5076549;28;20462;-51
2021/06/03 03:25:21;;;;;;;10.40;6.70;;;;;;;23.16;41.53;101516.94;5074881;28;20482;-54
2021/06/03 03:27:49;;;;;;;13.20;8.27;;;;;;;23.00;41.81;101518.69;5076114;28;20534;-50
2021/06/03 03:30:18;;;;;;;12.00;7.47;;;;;;;23.20;41.44;101517.81;5074552;28;20539;-54
2021/06/03 03:32:46;;;;;;;9.93;6.40;;;;;;;23.03;41.95;101523.94;5076177;28;20898;-50
2021/06/03 03:35:14;;;;;;;13.43;7.30;;;;;;;23.09;42.27;101520.44;5074963;28;20482;-53
2021/06/03 03:37:42;;;;;;;9.93;6.33;;;;;;;22.71;42.45;101524.72;5075775;28;20470;-56
2021/06/03 03:40:13;;;;;;;11.20;7.30;;;;;;;22.97;42.16;101518.66;5074584;28;20481;-54
2021/06/03 03:42:40;;;;;;;9.07;6.47;;;;;;;22.86;42.40;101515.16;5076038;28;20462;-55
2021/06/03 03:45:10;;;;;;;17.27;11.30;;;;;;;22.96;42.48;101527.44;5074748;28;20478;-53
2021/06/03 03:47:37;;;;;;;11.20;7.63;;;;;;;23.11;41.79;101528.34;5075818;28;20464;-51
2021/06/03 03:50:05;;;;;;;11.13;6.70;;;;;;;23.08;42.18;101525.69;5074385;28;20478;-53
2021/06/03 03:52:32;;;;;;;13.07;8.60;;;;;;;23.32;41.72;101531.03;5075918;28;20464;-53
2021/06/03 03:55:00;;;;;;;9.20;6.50;;;;;;;23.47;41.11;101526.63;5074550;28;20484;-47
2021/06/03 03:57:29;;;;;;;10.80;6.70;;;;;;;23.49;41.34;101526.66;5075351;28;20527;-52
2021/06/03 03:59:56;;;;;;;13.70;7.67;;;;;;;23.38;41.38;101530.13;5074431;28;20491;-51
2021/06/03 04:02:23;;;;;;;17.80;9.67;;;;;;;23.52;41.42;101530.16;5075851;28;20833;-55
2021/06/03 04:04:51;;;;;;;15.73;9.07;;;;;;;23.59;41.21;101531.91;5074230;28;20482;-54
2021/06/03 04:07:18;;;;;;;10.40;7.20;;;;;;;23.58;41.14;101532.78;5075359;28;20463;-54
2021/06/03 04:09:45;;;;;;;15.27;8.50;;;;;;;23.74;41.01;101532.78;5074303;28;20484;-53
2021/06/03 04:12:12;;;;;;;12.03;6.80;;;;;;;23.76;40.79;101536.28;5075708;28;20454;-51
2021/06/03 04:14:41;;;;;;;11.10;7.07;;;;;;;23.85;40.68;101530.13;5074002;28;20473;-49
2021/06/03 04:17:08;;;;;;;8.73;5.93;;;;;;;23.79;40.69;101536.28;5075391;28;20457;-50
2021/06/03 04:19:35;;;;;;;14.03;6.33;;;;;;;23.46;41.68;101527.53;5074027;28;20473;-54
2021/06/03 04:22:02;;;;;;;13.47;7.60;;;;;;;23.52;41.33;101530.16;5075326;28;20905;-55
2021/06/03 04:24:29;;;;;;;9.00;6.90;;;;;;;23.91;40.82;101531.88;5074596;28;20467;-53
2021/06/03 04:26:57;;;;;;;13.90;7.33;;;;;;;23.99;40.58;101528.34;5075293;28;20463;-53
2021/06/03 04:29:24;;;;;;;9.60;5.77;;;;;;;23.59;40.98;101526.63;5074075;28;20477;-53
2021/06/03 04:31:53;;;;;;;12.90;6.97;;;;;;;24.06;40.34;101530.97;5075387;28;20464;-50
2021/06/03 04:34:20;;;;;;;10.63;7.00;;;;;;;24.01;40.54;101536.25;5074275;28;20462;-53
2021/06/03 04:36:47;;;;;;;9.00;6.47;;;;;;;24.16;39.95;101543.28;5074718;28;20489;-53
2021/06/03 04:39:14;;;;;;;9.07;5.90;;;;;;;24.20;40.23;101537.09;5074309;28;20475;-55
2021/06/03 04:41:41;;;;;;;11.63;7.50;;;;;;;24.18;40.54;101543.25;5075252;28;20500;-53
2021/06/03 04:44:08;;;;;;;11.93;7.10;;;;;;;24.26;40.42;101536.22;5075158;28;20465;-52
2021/06/03 04:46:35;;;;;;;10.50;7.10;;;;;;;24.39;39.99;101548.47;5074214;28;20504;-53
2021/06/03 04:49:04;;;;;;;9.83;6.50;;;;;;;24.05;40.30;101542.41;5072975;28;20476;-53
2021/06/03 04:51:31;;;;;;;9.17;6.53;;;;;;;24.54;39.76;101547.56;5073884;28;20938;-50
2021/06/03 04:53:58;;;;;;;11.30;6.43;;;;;;;24.07;40.63;101545.94;5074949;28;20459;-52
2021/06/03 04:56:25;;;;;;;10.03;7.07;;;;;;;24.73;38.69;101549.22;5073477;28;20483;-53
2021/06/03 04:58:52;;;;;;;9.63;5.90;;;;;;;24.47;39.57;101555.47;5075009;28;20780;-50
2021/06/03 05:01:19;;;;;;;13.53;7.53;;;;;;;24.62;39.51;101555.41;5073691;28;20943;-52
2021/06/03 05:03:46;;;;;;;16.17;9.60;;;;;;;24.50;39.48;101552.84;5075000;28;20507;-52
2021/06/03 05:06:15;;;;;;;9.07;6.40;;;;;;;24.34;39.44;101555.53;5072072;28;20890;-55
2021/06/03 05:08:42;;;;;;;9.40;7.10;;;;;;;24.47;39.26;101555.47;5075061;28;20491;-54
2021/06/03 05:11:09;;;;;;;24.33;10.87;;;;;;;24.59;39.38;101554.53;5073745;28;20476;-52
2021/06/03 05:13:36;;;;;;;16.67;6.63;;;;;;;25.06;38.42;101547.28;5074784;28;20459;-51
2021/06/03 05:16:04;;;;;;;9.20;6.17;;;;;;;24.69;39.13;101551.00;5074255;28;20486;-53
2021/06/03 05:18:31;;;;;;;12.03;7.40;;;;;;;24.41;39.53;101540.56;5078498;28;20481;-52
2021/06/03 05:20:58;;;;;;;12.20;8.30;;;;;;;24.48;39.09;101551.97;5077180;28;20489;-52
2021/06/03 05:23:27;;;;;;;10.90;6.33;;;;;;;24.71;38.94;101540.44;5078727;28;20456;-52
2021/06/03 05:25:54;;;;;;;11.90;7.07;;;;;;;24.78;38.53;101543.03;5076936;28;20935;-52
2021/06/03 05:28:21;;;;;;;11.20;6.70;;;;;;;24.50;39.19;101547.56;5078144;28;20951;-52
2021/06/03 05:30:48;;;;;;;12.03;6.70;;;;;;;24.66;38.95;101546.59;5076961;28;20484;-53
2021/06/03 05:33:15;;;;;;;14.53;7.13;;;;;;;24.80;38.78;101548.28;5078345;28;20461;-52
2021/06/03 05:35:42;;;;;;;15.23;8.00;;;;;;;24.48;39.30;101544.03;5076863;28;20475;-50
2021/06/03 05:38:09;;;;;;;10.70;6.90;;;;;;;24.79;38.95;101557.09;5078455;28;20487;-51
2021/06/03 05:40:38;;;;;;;9.30;5.77;;;;;;;24.76;38.95;101554.50;5076689;28;20492;-51
2021/06/03 05:43:05;;;;;;;12.17;6.90;;;;;;;24.71;38.93;101559.75;5078292;28;20468;-54
2021/06/03 05:45:32;;;;;;;13.60;7.90;;;;;;;24.93;38.76;101559.69;5076594;28;20472;-53
2021/06/03 05:47:59;;;;;;;12.93;6.10;;;;;;;25.05;38.62;101553.47;5078370;28;20503;-54
2021/06/03 05:50:27;;;;;;;10.10;6.93;;;;;;;24.74;39.07;101559.75;5076898;28;20488;-51
2021/06/03 05:52:55;;;;;;;10.27;6.23;;;;;;;24.66;39.31;101561.56;5078187;28;20469;-53
2021/06/03 05:55:22;;;;;;;10.17;6.80;;;;;;;24.85;38.46;101565.00;5076050;28;20476;-52
2021/06/03 05:57:51;;;;;;;11.20;6.67;;;;;;;25.08;38.54;101564.88;5077931;28;20460;-54
2021/06/03 06:00:22;;;;;;;14.80;7.03;;;;;;;24.89;39.03;101557.97;5076443;28;20514;-54
2021/06/03 06:02:53;;;;;;;11.80;6.67;;;;;;;24.81;39.35;101560.63;5078232;28;20484;-55
2021/06/03 06:08:08;;;;;;;14.07;8.30;;;;;;;24.54;39.65;101562.47;5077771;28;20488;-54
2021/06/03 06:10:35;;;;;;;12.80;8.30;;;;;;;24.51;39.59;101562.50;5076378;28;20490;-52
2021/06/03 06:13:04;;;;;;;10.00;7.23;;;;;;;24.81;38.65;101565.91;5078022;28;20462;-53
2021/06/03 06:15:32;;;;;;;11.13;7.27;;;;;;;24.46;39.03;101565.13;5075984;28;20476;-54
2021/06/03 06:18:00;;;;;;;11.83;6.33;;;;;;;24.59;38.82;101562.44;5077454;28;20464;-54
2021/06/03 06:20:27;;;;;;;13.70;7.57;;;;;;;24.59;38.93;101571.25;5076174;28;20494;-53
2021/06/03 06:22:56;;;;;;;19.00;10.53;;;;;;;24.72;38.74;101569.47;5077485;28;20465;-51
2021/06/03 06:25:23;;;;;;;12.33;7.10;;;;;;;24.71;38.87;101574.72;5075953;28;20486;-51
2021/06/03 06:27:55;;;;;;;17.53;6.27;;;;;;;24.97;38.21;101574.63;5076688;28;20562;-53
2021/06/03 06:30:24;;;;;;;9.00;5.97;;;;;;;24.80;38.90;101574.69;5076010;28;20485;-47
2021/06/03 06:32:52;;;;;;;11.60;6.63;;;;;;;24.86;38.40;101579.97;5077564;28;20492;-54
2021/06/03 06:35:19;;;;;;;12.10;6.20;;;;;;;24.99;38.29;101587.81;5075927;28;20496;-51
2021/06/03 06:37:46;;;;;;;11.63;6.43;;;;;;;25.01;38.60;101580.78;5076939;28;20782;-49
2021/06/03 06:40:13;;;;;;;10.50;6.20;;;;;;;24.96;38.81;101583.41;5075727;28;20789;-51
2021/06/03 06:42:40;;;;;;;10.90;7.03;;;;;;;25.13;38.03;101601.81;5077073;28;20464;-52
2021/06/03 06:45:09;;;;;;;10.40;6.70;;;;;;;25.14;38.61;101602.69;5076045;28;20500;-53
2021/06/03 06:47:37;;;;;;;10.07;7.10;;;;;;;25.16;38.61;101603.53;5076826;28;20473;-48
2021/06/03 06:50:07;;;;;;;9.67;6.30;;;;;;;25.17;38.21;101595.63;5075726;28;20485;-55
2021/06/03 06:52:34;;;;;;;12.93;6.60;;;;;;;25.39;37.57;101606.06;5076812;28;20465;-54
2021/06/03 06:55:01;;;;;;;16.37;6.60;;;;;;;25.67;37.30;101605.88;5078212;28;20519;-54
2021/06/03 06:57:28;;;;;;;15.77;8.03;;;;;;;25.42;37.97;101606.03;5083546;28;20468;-56
2021/06/03 06:59:55;;;;;;;11.07;6.20;;;;;;;25.58;38.04;101605.97;5075130;28;20492;-54
2021/06/03 07:02:22;;;;;;;9.73;6.67;;;;;;;25.80;37.06;101611.06;5078776;28;20882;-53
2021/06/03 07:04:51;;;;;;;16.40;9.80;;;;;;;25.68;37.60;101615.53;5077636;28;20478;-51
2021/06/03 07:07:18;;;;;;;13.00;7.17;;;;;;;25.27;38.29;101616.69;5076336;28;20454;-51
2021/06/03 07:09:45;;;;;;;9.83;6.70;;;;;;;25.70;37.96;101610.25;5075395;28;20486;-52
2021/06/03 07:12:13;;;;;;;14.43;8.20;;;;;;;25.31;38.49;101619.31;5076490;28;20465;-52
2021/06/03 07:14:40;;;;;;;14.97;8.57;;;;;;;25.44;38.44;101612.16;5075094;28;20967;-58
2021/06/03 07:17:07;;;;;;;10.57;6.63;;;;;;;25.57;37.95;101620.03;5076014;28;20468;-56
2021/06/03 07:19:34;;;;;;;14.13;7.60;;;;;;;25.35;38.09;101620.16;5075038;28;20478;-53
2021/06/03 07:22:06;;;;;;;13.53;8.43;;;;;;;25.83;37.79;101621.63;5080460;28;20511;-53
2021/06/03 07:24:34;;;;;;;15.57;7.60;;;;;;;26.32;36.45;101616.75;5085348;28;20470;-57
2021/06/03 07:27:01;;;;;;;10.70;6.30;;;;;;;26.41;36.96;101624.59;5076042;28;20455;-55
2021/06/03 07:29:28;;;;;;;14.33;7.20;;;;;;;26.00;37.49;101619.66;5082053;28;20513;-55
2021/06/03 07:31:55;;;;;;;10.47;6.10;;;;;;;26.06;37.14;101623.16;5091728;28;20450;-54
2021/06/03 07:34:23;;;;;;;11.23;8.00;;;;;;;26.26;37.24;101620.34;5091269;28;20470;-55
2021/06/03 07:36:50;;;;;;;11.60;6.80;;;;;;;26.00;37.62;101616.16;5078083;28;20472;-53
2021/06/03 07:39:20;;;;;;;10.53;6.63;;;;;;;26.00;37.74;101613.53;5074222;28;20482;-52
2021/06/03 07:41:48;;;;;;;10.57;6.77;;;;;;;25.61;37.90;101611.19;5075199;28;20498;-55
2021/06/03 07:44:15;;;;;;;11.60;7.13;;;;;;;25.63;38.30;101604.13;5074524;28;20919;-57
2021/06/03 07:46:42;;;;;;;10.63;6.13;;;;;;;26.13;37.23;101608.97;5074916;28;20940;-55
2021/06/03 07:49:12;;;;;;;14.17;6.73;;;;;;;26.75;36.59;101607.47;5074491;28;20482;-56
2021/06/03 07:51:39;;;;;;;13.63;6.90;;;;;;;26.31;36.91;101607.06;5075771;28;20479;-56
2021/06/03 07:54:07;;;;;;;16.60;6.40;;;;;;;26.09;37.51;101602.84;5075400;28;20446;-52
2021/06/03 07:56:35;;;;;;;9.17;6.03;;;;;;;26.48;36.77;101602.47;5067518;28;20483;-51
2021/06/03 07:59:03;;;;;;;11.67;6.63;;;;;;;26.76;36.52;101606.56;5063095;28;20471;-54
2021/06/03 08:01:30;;;;;;;14.03;9.30;;;;;;;26.97;36.45;101605.44;5074051;28;20486;-53
2021/06/03 08:03:57;;;;;;;10.53;6.67;;;;;;;27.00;36.29;101601.84;5075581;28;20463;-57
2021/06/03 08:06:24;;;;;;;15.83;9.57;;;;;;;27.52;35.81;101596.69;5073566;28;20474;-52
2021/06/03 08:08:51;;;;;;;13.07;6.93;;;;;;;27.24;35.94;101605.94;5073119;28;20489;-53
2021/06/03 08:11:18;;;;;;;10.90;6.37;;;;;;;27.47;34.86;101596.72;5054023;28;20478;-54
2021/06/03 08:13:47;;;;;;;12.73;6.20;;;;;;;27.88;34.31;101587.25;5055343;28;20902;-56
2021/06/03 08:16:14;;;;;;;10.80;6.33;;;;;;;27.88;34.79;101597.84;5053699;28;20490;-52
2021/06/03 08:18:41;;;;;;;12.37;6.67;;;;;;;27.70;35.65;101600.81;5055089;28;20475;-54
2021/06/03 08:21:09;;;;;;;10.00;6.60;;;;;;;28.13;34.42;101597.41;5053947;28;20483;-54
2021/06/03 08:23:36;;;;;;;9.80;6.10;;;;;;;28.19;34.21;101590.25;5074009;28;20775;-53
2021/06/03 08:26:03;;;;;;;17.70;7.80;;;;;;;27.84;34.74;101595.28;5072599;28;20756;-52
2021/06/03 08:28:31;;;;;;;10.40;6.00;;;;;;;27.71;35.24;101599.91;5069847;28;20470;-51
2021/06/03 08:31:00;;;;;;;16.13;6.37;;;;;;;27.60;35.11;101598.34;5073666;28;20474;-53
2021/06/03 08:33:28;;;;;;;12.67;6.27;;;;;;;27.69;35.05;101601.72;5075160;28;20474;-53
2021/06/03 08:35:56;;;;;;;12.80;7.40;;;;;;;27.85;34.43;101597.03;5073432;28;20783;-51
2021/06/03 08:38:23;;;;;;;12.43;6.50;;;;;;;28.04;34.41;101606.41;5074722;28;20487;-54
2021/06/03 08:40:52;;;;;;;17.83;9.83;;;;;;;28.84;33.46;101604.88;5073894;28;20485;-53
2021/06/03 08:43:21;;;;;;;44.10;21.83;;;;;;;28.75;33.41;101610.38;5075324;28;20461;-51
2021/06/03 08:45:49;;;;;;;11.57;6.80;;;;;;;28.21;34.11;101601.69;5072711;28;20474;-56
2021/06/03 08:48:18;;;;;;;11.30;5.90;;;;;;;28.31;33.82;101605.94;5073486;28;20529;-50
2021/06/03 08:50:47;;;;;;;10.43;6.30;;;;;;;28.32;33.83;101610.34;5073317;28;20557;-50
2021/06/03 08:53:15;;;;;;;10.00;6.43;;;;;;;28.24;33.57;101609.63;5078469;28;20462;-54
2021/06/03 08:58:28;;;;;;;14.60;6.87;;;;;;;28.27;33.95;101612.22;5099095;28;20481;-57
2021/06/03 09:00:57;;;;;;;16.90;10.30;;;;;;;28.39;34.31;101617.28;5083324;28;20474;-50
2021/06/03 09:03:27;;;;;;;12.20;7.00;;;;;;;28.42;33.81;101617.22;5099221;28;20510;-49
2021/06/03 09:05:55;;;;;;;10.23;6.07;;;;;;;28.28;33.40;101604.22;5094307;28;20933;-52
2021/06/03 09:08:24;;;;;;;12.50;6.10;;;;;;;28.20;34.10;101607.91;5078845;28;20485;-54
2021/06/03 09:10:53;;;;;;;13.00;6.93;;;;;;;28.53;33.52;101600.19;5077071;28;20479;-55
2021/06/03 09:13:21;;;;;;;16.83;7.23;;;;;;;28.75;33.10;101599.78;5077939;28;20960;-51
2021/06/03 09:15:50;;;;;;;11.80;6.80;;;;;;;28.61;33.60;101602.69;5074241;28;20972;-54
2021/06/03 09:18:19;;;;;;;13.07;7.70;;;;;;;28.88;33.28;101595.97;5077832;28;20920;-55
2021/06/03 09:20:47;;;;;;;11.50;7.60;;;;;;;28.56;33.50;101605.47;5073538;28;20486;-55
2021/06/03 09:23:26;;;;;;;13.20;7.33;;;;;;;29.19;32.59;101597.91;5074209;28;20949;-56
2021/06/03 09:25:54;;;;;;;10.50;6.07;;;;;;;28.78;33.38;101594.38;5077010;28;20480;-55
2021/06/03 09:28:25;;;;;;;9.83;6.07;;;;;;;28.93;33.40;101599.41;5077945;28;20509;-55
2021/06/03 09:31:14;;;;;;;21.63;12.57;;;;;;;28.81;33.54;101607.59;5076603;28;20475;-55
2021/06/03 09:33:47;;;;;;;10.17;6.70;;;;;;;28.56;33.55;101611.63;5066845;28;20463;-52
2021/06/03 09:36:18;;;;;;;8.80;6.10;;;;;;;28.28;33.80;101611.31;5056453;28;20483;-54
2021/06/03 09:39:13;;;;;;;15.23;7.00;;;;;;;28.60;33.23;101617.75;5072098;28;20485;-53
2021/06/03 09:41:43;;;;;;;16.47;9.13;;;;;;;28.93;32.96;101625.94;5071713;28;20482;-54
2021/06/03 09:44:14;;;;;;;14.83;7.30;;;;;;;29.27;32.54;101626.09;5073941;28;20562;-55
2021/06/03 09:46:44;;;;;;;13.63;7.20;;;;;;;28.94;33.45;101619.72;5074783;28;20489;-53
2021/06/03 09:49:19;;;;;;;16.27;7.50;;;;;;;29.24;33.27;101630.56;5076800;28;20478;-52
2021/06/03 09:51:50;;;;;;;13.80;6.23;;;;;;;28.75;33.38;101621.00;5077753;28;20482;-57
2021/06/03 09:54:20;;;;;;;17.97;7.20;;;;;;;28.29;33.78;101624.53;5076648;28;20455;-56
2021/06/03 09:56:51;;;;;;;17.37;7.53;;;;;;;29.30;32.89;101626.00;5077400;28;20532;-51
2021/06/03 09:59:21;;;;;;;13.97;8.73;;;;;;;28.80;33.92;101624.41;5076241;28;20485;-54
2021/06/03 10:01:57;;;;;;;15.73;8.13;;;;;;;29.01;33.41;101627.56;5074842;28;20483;-53
2021/06/03 10:04:29;;;;;;;11.47;6.33;;;;;;;28.77;33.60;101629.78;5074794;28;20517;-54
2021/06/03 10:07:13;;;;;;;13.60;7.60;;;;;;;29.04;32.81;101622.16;5064233;28;20467;-53
2021/06/03 10:09:49;;;;;;;12.20;7.60;;;;;;;28.26;33.96;101623.72;5074828;28;20465;-55
2021/06/03 10:12:44;;;;;;;58.33;33.30;;;;;;;29.32;32.83;101622.41;5070110;28;20459;-55
2021/06/03 10:15:33;;;;;;;20.70;10.73;;;;;;;28.94;34.21;101626.81;5062924;28;20475;-50
2021/06/03 10:18:03;;;;;;;17.77;12.40;;;;;;;29.03;33.04;101628.38;5062551;28;20815;-54
2021/06/03 10:20:37;;;;;;;15.77;8.87;;;;;;;28.83;33.68;101632.31;5073121;28;20482;-53
2021/06/03 10:23:06;;;;;;;14.83;7.83;;;;;;;28.80;33.62;101640.34;5076988;28;20485;-54
2021/06/03 10:25:34;;;;;;;23.00;14.30;;;;;;;29.01;33.29;101638.19;5075622;28;20477;-52
2021/06/03 10:28:03;;;;;;;21.70;14.33;;;;;;;28.69;34.05;101638.81;5076702;28;20454;-52
2021/06/03 10:30:33;;;;;;;17.57;11.47;;;;;;;28.53;34.03;101632.94;5074933;28;20977;-56
2021/06/03 10:33:04;;;;;;;19.07;12.10;;;;;;;28.78;33.81;101637.75;5074241;28;20540;-51
2021/06/03 10:35:33;;;;;;;38.83;23.20;;;;;;;29.03;32.89;101641.66;5074060;28;20816;-55
2021/06/03 10:38:00;;;;;;;13.70;9.23;;;;;;;29.16;32.95;101644.94;5082711;28;20474;-55
2021/06/03 10:40:30;;;;;;;17.23;11.27;;;;;;;28.88;33.61;101642.88;5087056;28;20940;-54
2021/06/03 10:42:58;;;;;;;10.73;6.60;;;;;;;28.52;34.37;101651.53;5077034;28;20486;-50
2021/06/03 10:45:27;;;;;;;10.87;6.07;;;;;;;28.98;33.80;101661.22;5075173;28;20557;-53
2021/06/03 10:47:56;;;;;;;16.97;8.77;;;;;;;29.06;33.74;101662.84;5076929;28;20749;-51
2021/06/03 10:50:25;;;;;;;13.00;6.30;;;;;;;28.90;33.94;101665.84;5074609;28;20474;-55
2021/06/03 10:52:53;;;;;;;10.83;6.43;;;;;;;28.78;34.66;101663.41;5079785;28;20451;-56
2021/06/03 10:55:28;;;;;;;28.33;15.97;;;;;;;28.90;34.62;101668.47;5074866;28;20516;-54
2021/06/03 10:57:58;;;;;;;16.20;9.00;;;;;;;28.35;35.40;101660.69;5072388;28;20473;-54
2021/06/03 11:00:32;;;;;;;15.90;6.47;;;;;;;28.60;34.96;101659.34;5074272;28;20474;-54
2021/06/03 11:03:01;;;;;;;18.40;10.53;;;;;;;28.85;34.32;101667.66;5069622;28;20493;-51
2021/06/03 11:05:32;;;;;;;16.20;7.70;;;;;;;28.77;34.78;101666.97;5071485;28;20522;-51
2021/06/03 11:08:21;;;;;;;14.97;8.77;;;;;;;28.60;34.69;101675.28;5084032;28;20462;-52
2021/06/03 11:10:50;;;;;;;8.90;5.87;;;;;;;28.97;34.29;101674.56;5079797;28;20831;-55
2021/06/03 11:13:18;;;;;;;10.07;6.00;;;;;;;29.04;33.78;101681.47;5086124;28;20451;-55
2021/06/03 11:16:07;;;;;;;12.77;6.27;;;;;;;29.21;33.64;101672.25;5073072;28;20490;-54
2021/06/03 11:19:13;;;;;;;13.37;7.43;;;;;;;29.61;33.50;101674.03;5075845;28;20522;-57
2021/06/03 11:22:01;;;;;;;12.77;8.57;;;;;;;29.82;33.36;101666.41;5071435;28;20982;-55
2021/06/03 11:24:42;;;;;;;10.73;7.27;;;;;;;29.91;33.72;101668.88;5072243;28;20545;-58
2021/06/03 11:27:10;;;;;;;12.40;6.00;;;;;;;29.80;33.52;101676.22;5077833;28;20471;-53
2021/06/03 11:29:41;;;;;;;14.33;8.10;;;;;;;30.00;33.45;101672.19;5094775;28;20783;-57
2021/06/03 11:32:20;;;;;;;15.90;8.43;;;;;;;29.89;33.71;101670.66;5078591;28;20466;-54
2021/06/03 11:34:50;;;;;;;26.70;16.97;;;;;;;29.92;33.88;101662.63;5073770;28;20490;-57